CheckWX is a tool to help pilots better visualize weather data.  It is not intended as a substitute for an official pre-flight weather briefing.

13:43:12 UTC

KCRG METAR
Jacksonville Executive at Craig Airport
Jacksonville, Florida, USA
Current

50 mins ago

KCRG 201253Z 10004KT 10SM CLR 27/24 A3011 RMK AO2 SLP194 T02670244 $
Observed
Jul-20 @ 12:53 UTC
Wind
  • 100° at 4 KTS
Visibility
10 SM
Flight Rules
VFR
Cloud Levels
  • Clear skies
Temperature
27°C / 81°F
Dewpoint
24°C / 75°F
Heat Index
31°C / 87°F
Humidity
84%
Altimeter
30.11" Hg
Pressure
1019.62 hPa
Previous

2 hours ago

KCRG 201153Z 00000KT 9SM CLR 24/24 A3009 RMK AO2 SLP190 70043 T02440239 10244 20211 51012 $
Observed
Jul-20 @ 11:53 UTC
Visibility
9 SM
Flight Rules
VFR
Cloud Levels
  • Clear skies
Temperature
24°C / 75°F
Dewpoint
24°C / 75°F
Humidity
100%
Altimeter
30.09" Hg
Pressure
1018.92 hPa
24 Hour Rain
0.43"
Previous

3 hours ago

KCRG 201053Z 00000KT 8SM CLR 22/22 A3008 RMK AO2 SLP185 T02220222 $
Observed
Jul-20 @ 10:53 UTC
Visibility
8 SM
Flight Rules
VFR
Cloud Levels
  • Clear skies
Temperature
22°C / 72°F
Dewpoint
22°C / 72°F
Humidity
100%
Altimeter
30.08" Hg
Pressure
1018.62 hPa